Kale Nakliyat-2 — TCBA7 — position and weather

sailwx.info

Track history (hours):
 
Tides and Currents Weather Stations Pressure Air Temp Water Temp Dewpoint Dewpoint Depression Visibility Wind Speed Wind Dir Waves Ship Positions

Kale Nakliyat-2

Last reported at 2014-Dec-19 17:33 UTC. Time now 2014-Dec-23 04:25 UTC.
Position N 40°49' E 029°00'.

Length 73 m; draft 4.3 m.

Type: Cargo ship. MMSI: 271002023.

Date/timePositionNaut miles runAvg speedWind from/ knotsBaromVisibWave heightAir tempDewpointWater temp
2014-Dec-19 17:33N 40°49' E 029°00'8 8.5
2014-Dec-19 16:33N 40°52' E 029°11'1 1.5
2014-Dec-19 15:33N 40°53' E 029°12'0 0.0
2014-Dec-19 14:33N 40°53' E 029°12'0 0.0
2014-Dec-19 13:33N 40°53' E 029°12'0 0.0
2014-Dec-19 12:33N 40°53' E 029°12'0 0.0
2014-Dec-19 11:33N 40°53' E 029°12'0 0.0
2014-Dec-19 10:33N 40°53' E 029°12'0 0.0
2014-Dec-19 09:33N 40°53' E 029°12'0 0.0
2014-Dec-19 08:33N 40°53' E 029°12'0 0.0
2014-Dec-19 07:33N 40°53' E 029°12'0 0.0
2014-Dec-19 06:33N 40°53' E 029°12'0 0.0
2014-Dec-19 05:33N 40°53' E 029°12'0 0.0
2014-Dec-19 04:32N 40°53' E 029°12'1 0.5
2014-Dec-19 03:33N 40°53' E 029°12'9 8.8
2014-Dec-19 02:32N 40°49' E 029°01'9 9.1
2014-Dec-19 01:33N 40°46' E 028°50'6 0.2
2014-Dec-17 18:27N 40°50' E 028°57'8 8.6
2014-Dec-17 17:31N 40°50' E 029°08'4 4.6
2014-Dec-17 16:33N 40°53' E 029°12'0 0.0
2014-Dec-17 15:33N 40°53' E 029°12'0 0.0
2014-Dec-17 14:31N 40°53' E 029°12'0 0.0
2014-Dec-17 13:33N 40°53' E 029°12'0 0.0
2014-Dec-17 12:33N 40°53' E 029°12'0 0.0
2014-Dec-17 11:33N 40°53' E 029°12'0 0.0
2014-Dec-17 10:33N 40°53' E 029°12'0 0.0
2014-Dec-17 09:33N 40°53' E 029°12'0 0.0
2014-Dec-17 08:33N 40°53' E 029°12'0 0.5
2014-Dec-17 07:33N 40°53' E 029°12'0 0.0
2014-Dec-17 06:33N 40°53' E 029°12'0 0.4
2014-Dec-17 05:33N 40°52' E 029°12'0 0.0
2014-Dec-17 04:33N 40°52' E 029°13'0 0.0
2014-Dec-17 03:33N 40°52' E 029°12'0 0.0
2014-Dec-17 02:33N 40°52' E 029°12'1 1.1
2014-Dec-17 01:32N 40°53' E 029°11'9 8.6
2014-Dec-17 00:28N 40°54' E 028°59'35 5.0
2014-Dec-16 17:33N 41°18' E 029°32'  
2014-Dec-09 21:33N 41°16' E 029°38'10 9.9
2014-Dec-09 20:33N 41°15' E 029°25'9 9.1
2014-Dec-09 19:33N 41°15' E 029°13'  
Track history (hours):
 
Tides and Currents Weather Stations Pressure Air Temp Water Temp Dewpoint Dewpoint Depression Visibility Wind Speed Wind Dir Waves Ship Positions

Kale Nakliyat-2

Last reported at 2014-Dec-19 17:33 UTC. Time now 2014-Dec-23 04:25 UTC.
Position N 40°49' E 029°00'.

Length 73 m; draft 4.3 m.

Type: Cargo ship. MMSI: 271002023.

Date/timePositionNaut miles runAvg speedWind from/ knotsBaromVisibWave heightAir tempDewpointWater temp
2014-Dec-19 17:33N 40°49' E 029°00'8 8.5
2014-Dec-19 16:33N 40°52' E 029°11'1 1.5
2014-Dec-19 15:33N 40°53' E 029°12'0 0.0
2014-Dec-19 14:33N 40°53' E 029°12'0 0.0
2014-Dec-19 13:33N 40°53' E 029°12'0 0.0
2014-Dec-19 12:33N 40°53' E 029°12'0 0.0
2014-Dec-19 11:33N 40°53' E 029°12'0 0.0
2014-Dec-19 10:33N 40°53' E 029°12'0 0.0
2014-Dec-19 09:33N 40°53' E 029°12'0 0.0
2014-Dec-19 08:33N 40°53' E 029°12'0 0.0
2014-Dec-19 07:33N 40°53' E 029°12'0 0.0
2014-Dec-19 06:33N 40°53' E 029°12'0 0.0
2014-Dec-19 05:33N 40°53' E 029°12'0 0.0
2014-Dec-19 04:32N 40°53' E 029°12'1 0.5
2014-Dec-19 03:33N 40°53' E 029°12'9 8.8
2014-Dec-19 02:32N 40°49' E 029°01'9 9.1
2014-Dec-19 01:33N 40°46' E 028°50'6 0.2
2014-Dec-17 18:27N 40°50' E 028°57'8 8.6
2014-Dec-17 17:31N 40°50' E 029°08'4 4.6
2014-Dec-17 16:33N 40°53' E 029°12'0 0.0
2014-Dec-17 15:33N 40°53' E 029°12'0 0.0
2014-Dec-17 14:31N 40°53' E 029°12'0 0.0
2014-Dec-17 13:33N 40°53' E 029°12'0 0.0
2014-Dec-17 12:33N 40°53' E 029°12'0 0.0
2014-Dec-17 11:33N 40°53' E 029°12'0 0.0
2014-Dec-17 10:33N 40°53' E 029°12'0 0.0
2014-Dec-17 09:33N 40°53' E 029°12'0 0.0
2014-Dec-17 08:33N 40°53' E 029°12'0 0.5
2014-Dec-17 07:33N 40°53' E 029°12'0 0.0
2014-Dec-17 06:33N 40°53' E 029°12'0 0.4
2014-Dec-17 05:33N 40°52' E 029°12'0 0.0
2014-Dec-17 04:33N 40°52' E 029°13'0 0.0
2014-Dec-17 03:33N 40°52' E 029°12'0 0.0
2014-Dec-17 02:33N 40°52' E 029°12'1 1.1
2014-Dec-17 01:32N 40°53' E 029°11'9 8.6
2014-Dec-17 00:28N 40°54' E 028°59'35 5.0
2014-Dec-16 17:33N 41°18' E 029°32'  
2014-Dec-09 21:33N 41°16' E 029°38'10 9.9
2014-Dec-09 20:33N 41°15' E 029°25'9 9.1
2014-Dec-09 19:33N 41°15' E 029°13'  

Dump ship's entire track history